Setif, Algeria
Current Conditions -  °F | °C
As of 3:00 PM on Sunday 25 Jan 2015 (Local Time) from DAAS Reporting Station
Light Snow Light Snow  
Wind Chill: 22°   Ceiling: 2600
Heat Index: 32°   Visibility: 1.2mi
Dew Point: 32°   Wind: 15mph
Humidity: 100%   Direction: 280°W
Pressure: 29.91"   Gusts: NA
Location:  36.08°N, 5.44°E
Report Text: DAAS 251400Z 28013KT 2000 -SN BR SCT010 BKN026 00/M00 Q1013
Loading
Personal Weather Stations






























Interactive Weather Map New forecast layout! Learn more

10-Day Weather Forecast

Advertisements
Track Severe Weather on mobile